Time;durP1;ratioP1;P1;durP2;ratioP2;P2;SDS_P1;SDS_P2;PMS_P1;PMS_P2;Temp;Humidity;BMP_temperature;BMP_pressure;BME280_temperature;BME280_humidity;BME280_pressure;Samples;Min_cycle;Max_cycle;Signal;HPM_P1;HPM_P2
2023/12/15 00:01:05;;;;;;;28.23;10.70;;;3.60;99.90;;;;;;4971874;28;20213;-64
2023/12/15 00:03:30;;;;;;;30.57;11.27;;;3.70;99.90;;;;;;4972483;28;20185;-65
2023/12/15 00:05:57;;;;;;;32.07;11.70;;;3.60;99.90;;;;;;4972620;28;20667;-65
2023/12/15 00:08:23;;;;;;;29.00;11.73;;;3.70;99.90;;;;;;4971865;28;20228;-62
2023/12/15 00:10:49;;;;;;;29.33;11.20;;;3.70;99.90;;;;;;4971577;28;20201;-63
2023/12/15 00:13:15;;;;;;;29.90;11.13;;;3.70;99.90;;;;;;4972552;28;20244;-65
2023/12/15 00:15:41;;;;;;;28.77;11.40;;;3.70;99.90;;;;;;4973550;28;20190;-65
2023/12/15 00:18:07;;;;;;;30.77;10.80;;;3.60;99.90;;;;;;4973394;28;20190;-64
2023/12/15 00:20:32;;;;;;;33.93;12.50;;;3.60;99.90;;;;;;4972591;28;20233;-64
2023/12/15 00:22:58;;;;;;;31.80;12.10;;;3.70;99.90;;;;;;4973296;28;20272;-65
2023/12/15 00:25:23;;;;;;;29.00;10.63;;;3.60;99.90;;;;;;4972234;28;20190;-62
2023/12/15 00:27:49;;;;;;;30.13;11.43;;;3.60;99.90;;;;;;4986595;28;20236;-65
2023/12/15 00:30:15;;;;;;;34.77;11.97;;;3.60;99.90;;;;;;4969829;28;20201;-65
2023/12/15 00:32:40;;;;;;;29.13;11.53;;;3.60;99.90;;;;;;4971597;28;20182;-65
2023/12/15 00:35:07;;;;;;;35.97;12.47;;;3.50;99.90;;;;;;4986419;28;20178;-64
2023/12/15 00:37:32;;;;;;;34.27;12.97;;;3.50;99.90;;;;;;4971443;28;20244;-65
2023/12/15 00:39:58;;;;;;;31.33;11.30;;;3.60;99.90;;;;;;4986168;28;20705;-64
2023/12/15 00:42:23;;;;;;;31.97;12.23;;;3.60;99.90;;;;;;4971052;28;20196;-64
2023/12/15 00:44:49;;;;;;;35.90;12.27;;;3.70;99.90;;;;;;4971757;28;20237;-64
2023/12/15 00:47:15;;;;;;;33.67;11.60;;;3.80;99.90;;;;;;4972841;28;20698;-65
2023/12/15 00:49:41;;;;;;;33.87;12.33;;;3.90;99.90;;;;;;4974384;28;20190;-64
2023/12/15 00:52:07;;;;;;;31.67;11.87;;;3.90;99.90;;;;;;4977174;28;20205;-64
2023/12/15 00:54:32;;;;;;;33.10;13.00;;;3.90;99.90;;;;;;4978734;28;20202;-64
2023/12/15 00:56:58;;;;;;;34.47;12.90;;;3.90;99.90;;;;;;4980708;28;20193;-65
2023/12/15 00:59:23;;;;;;;32.43;11.77;;;4.00;99.90;;;;;;4977283;28;20284;-64
2023/12/15 01:01:49;;;;;;;27.90;11.17;;;4.10;99.90;;;;;;4975256;28;20209;-65
2023/12/15 01:04:14;;;;;;;34.03;12.37;;;4.10;99.90;;;;;;4975525;28;20217;-64
2023/12/15 01:06:40;;;;;;;32.70;12.40;;;4.10;99.90;;;;;;4975580;28;20248;-65
2023/12/15 01:09:06;;;;;;;32.63;12.37;;;4.10;99.90;;;;;;4975169;28;20807;-65
2023/12/15 01:11:31;;;;;;;37.13;12.20;;;4.10;99.90;;;;;;4974762;28;20256;-65
2023/12/15 01:13:57;;;;;;;37.43;12.97;;;4.10;99.90;;;;;;4975626;28;20185;-65
2023/12/15 01:16:22;;;;;;;33.40;12.90;;;4.00;99.90;;;;;;4975777;28;20189;-63
2023/12/15 01:18:48;;;;;;;33.17;12.33;;;4.10;99.90;;;;;;4976003;28;20726;-64
2023/12/15 01:21:14;;;;;;;30.07;11.47;;;4.20;99.90;;;;;;4975110;28;20599;-65
2023/12/15 01:23:39;;;;;;;33.27;12.13;;;4.20;99.90;;;;;;4975947;28;20280;-65
2023/12/15 01:26:05;;;;;;;37.77;12.77;;;4.20;99.90;;;;;;4975801;28;20624;-64
2023/12/15 01:28:31;;;;;;;35.87;13.50;;;4.30;99.90;;;;;;4975908;28;20268;-64
2023/12/15 01:31:01;;;;;;;31.97;12.00;;;4.30;99.90;;;;;;4975667;28;20262;-64
2023/12/15 01:33:27;;;;;;;37.33;13.53;;;4.30;99.90;;;;;;4976184;28;20182;-61
2023/12/15 01:35:52;;;;;;;31.23;11.17;;;4.30;99.90;;;;;;4968969;28;20217;-65
2023/12/15 01:38:18;;;;;;;29.10;11.83;;;4.30;99.90;;;;;;4975633;28;20200;-64
2023/12/15 01:40:43;;;;;;;29.23;11.40;;;4.30;99.90;;;;;;4975074;28;20221;-63
2023/12/15 01:43:09;;;;;;;35.67;13.00;;;4.30;99.90;;;;;;4975167;28;20554;-63
2023/12/15 01:45:35;;;;;;;31.43;12.33;;;4.40;99.90;;;;;;4976366;28;20205;-63
2023/12/15 01:48:01;;;;;;;32.30;11.67;;;4.40;99.90;;;;;;4962162;28;20279;-64
2023/12/15 01:50:27;;;;;;;36.13;12.87;;;4.40;99.90;;;;;;4982391;28;20745;-61
2023/12/15 01:52:52;;;;;;;31.93;12.90;;;4.40;99.90;;;;;;4985929;28;20217;-65
2023/12/15 01:55:18;;;;;;;34.67;11.77;;;4.30;99.90;;;;;;4981959;28;20186;-65
2023/12/15 01:57:44;;;;;;;33.67;11.30;;;4.30;99.90;;;;;;4977970;28;20569;-63
2023/12/15 02:00:10;;;;;;;32.47;11.60;;;4.30;99.90;;;;;;4974236;28;20212;-65
2023/12/15 02:02:36;;;;;;;34.00;11.83;;;4.30;99.90;;;;;;4975018;28;20276;-65
2023/12/15 02:05:02;;;;;;;31.07;11.10;;;4.30;99.90;;;;;;4975244;28;20209;-65
2023/12/15 02:07:28;;;;;;;33.70;12.57;;;4.30;99.90;;;;;;4973268;28;20324;-64
2023/12/15 02:09:55;;;;;;;29.40;11.33;;;4.40;99.90;;;;;;4974512;28;20186;-65
2023/12/15 02:12:21;;;;;;;33.50;12.27;;;4.40;99.90;;;;;;4974223;28;20197;-65
2023/12/15 02:14:46;;;;;;;31.93;12.27;;;4.40;99.90;;;;;;4975322;28;20229;-66
2023/12/15 02:17:12;;;;;;;32.30;11.67;;;4.40;99.90;;;;;;4974738;28;20225;-64
2023/12/15 02:19:38;;;;;;;37.00;11.80;;;4.40;99.90;;;;;;4974467;28;20659;-64
2023/12/15 02:22:04;;;;;;;35.17;12.73;;;4.40;99.90;;;;;;4973149;28;20314;-66
2023/12/15 02:24:29;;;;;;;28.47;11.07;;;4.40;99.90;;;;;;4973741;28;20189;-66
2023/12/15 02:26:55;;;;;;;27.20;10.87;;;4.40;99.90;;;;;;4974010;28;20229;-65
2023/12/15 02:29:21;;;;;;;30.50;12.03;;;4.40;99.90;;;;;;4973972;28;20538;-66
2023/12/15 02:31:47;;;;;;;32.03;11.93;;;4.30;99.90;;;;;;4973460;28;20209;-64
2023/12/15 02:34:12;;;;;;;28.70;11.13;;;4.30;99.90;;;;;;4973985;28;20178;-64
2023/12/15 02:36:38;;;;;;;26.47;10.50;;;4.30;99.90;;;;;;4974448;28;20213;-66
2023/12/15 02:39:03;;;;;;;31.17;12.13;;;4.30;99.90;;;;;;4974052;28;20170;-65
2023/12/15 02:41:32;;;;;;;27.60;11.30;;;4.30;99.90;;;;;;4973625;28;20228;-64
2023/12/15 02:43:58;;;;;;;31.97;11.37;;;4.30;99.90;;;;;;4974343;28;20212;-66
2023/12/15 02:46:24;;;;;;;28.13;11.07;;;4.30;99.90;;;;;;4975111;28;20186;-63
2023/12/15 02:48:49;;;;;;;31.97;12.03;;;4.30;99.90;;;;;;4975207;28;20201;-65
2023/12/15 02:51:28;;;;;;;31.07;11.17;;;4.30;99.90;;;;;;4979643;28;20216;-65
2023/12/15 02:53:54;;;;;;;35.13;11.17;;;4.40;99.90;;;;;;4983070;28;20213;-65
2023/12/15 02:56:20;;;;;;;26.63;10.30;;;4.40;99.90;;;;;;4981726;28;20170;-65
2023/12/15 02:58:46;;;;;;;29.10;10.90;;;4.30;99.90;;;;;;4977560;28;20563;-65
2023/12/15 03:01:11;;;;;;;27.93;10.73;;;4.30;99.90;;;;;;4973914;28;20209;-65
2023/12/15 03:03:37;;;;;;;28.00;9.80;;;4.30;99.90;;;;;;4974275;28;20212;-65
2023/12/15 03:06:03;;;;;;;28.53;10.13;;;4.30;99.90;;;;;;4972399;28;20248;-65
2023/12/15 03:08:28;;;;;;;30.70;10.60;;;4.30;99.90;;;;;;4973175;28;20213;-63
2023/12/15 03:10:57;;;;;;;27.97;10.57;;;4.30;99.90;;;;;;4973299;28;20555;-65
2023/12/15 03:13:28;;;;;;;29.60;9.90;;;4.30;99.90;;;;;;4974109;28;20787;-64
2023/12/15 03:16:01;;;;;;;26.13;9.67;;;4.30;99.90;;;;;;4967140;28;20205;-65
2023/12/15 03:18:27;;;;;;;29.20;10.53;;;4.30;99.90;;;;;;4973590;28;20185;-64
2023/12/15 03:20:52;;;;;;;29.23;10.20;;;4.30;99.90;;;;;;4973251;28;20226;-65
2023/12/15 03:23:18;;;;;;;27.90;10.10;;;4.30;99.90;;;;;;4973225;28;20190;-65
2023/12/15 03:25:44;;;;;;;25.37;9.43;;;4.30;99.90;;;;;;4973982;28;20694;-64
2023/12/15 03:28:09;;;;;;;27.23;9.90;;;4.30;99.90;;;;;;4973416;28;20208;-64
2023/12/15 03:30:35;;;;;;;25.10;10.17;;;4.40;99.90;;;;;;4971457;28;20276;-65
2023/12/15 03:33:00;;;;;;;26.83;10.53;;;4.40;99.90;;;;;;4971924;28;20182;-65
2023/12/15 03:35:26;;;;;;;28.13;10.13;;;4.40;99.90;;;;;;4972833;28;20197;-65
2023/12/15 03:37:51;;;;;;;29.70;10.67;;;4.40;99.90;;;;;;4972633;28;20269;-64
2023/12/15 03:40:17;;;;;;;25.00;9.87;;;4.40;99.90;;;;;;4971763;28;20214;-64
2023/12/15 03:42:42;;;;;;;29.67;10.23;;;4.40;99.90;;;;;;4973212;28;20198;-65
2023/12/15 03:45:08;;;;;;;28.00;10.80;;;4.40;99.90;;;;;;4973334;28;20211;-66
2023/12/15 03:47:34;;;;;;;28.60;10.07;;;4.40;99.90;;;;;;4973961;28;20402;-63
2023/12/15 03:49:59;;;;;;;26.80;10.03;;;4.40;99.90;;;;;;4974117;28;20209;-65
2023/12/15 03:52:25;;;;;;;23.50;9.80;;;4.30;99.90;;;;;;4975780;28;20189;-66
2023/12/15 03:54:51;;;;;;;34.40;10.93;;;4.40;99.90;;;;;;4976974;28;20188;-66
2023/12/15 03:57:16;;;;;;;23.03;9.80;;;4.40;99.90;;;;;;4974012;28;20264;-64
2023/12/15 03:59:42;;;;;;;31.00;10.47;;;4.40;99.90;;;;;;4972130;28;20198;-63
2023/12/15 04:02:12;;;;;;;29.37;10.60;;;4.40;99.90;;;;;;4971836;28;20272;-66
2023/12/15 04:04:38;;;;;;;26.53;10.57;;;4.40;99.90;;;;;;4972416;28;20213;-66
2023/12/15 04:07:03;;;;;;;26.20;9.83;;;4.40;99.90;;;;;;4971948;28;20662;-63
2023/12/15 04:09:29;;;;;;;29.63;11.47;;;4.40;99.90;;;;;;4972218;28;20264;-67
2023/12/15 04:11:54;;;;;;;33.73;10.57;;;4.40;99.90;;;;;;4971704;28;20261;-66
2023/12/15 04:14:20;;;;;;;33.30;11.33;;;4.40;99.90;;;;;;4973105;28;20185;-65
2023/12/15 04:16:45;;;;;;;29.13;10.97;;;4.40;99.90;;;;;;4973072;28;20544;-66
2023/12/15 04:19:11;;;;;;;30.83;11.43;;;4.30;99.90;;;;;;4972848;28;20639;-66
2023/12/15 04:21:37;;;;;;;32.03;11.87;;;4.30;99.90;;;;;;4972126;28;20661;-65
2023/12/15 04:24:03;;;;;;;29.73;10.87;;;4.30;99.90;;;;;;4972133;28;20394;-64
2023/12/15 04:26:28;;;;;;;29.30;11.03;;;4.40;99.90;;;;;;4971962;28;20185;-61
2023/12/15 04:28:54;;;;;;;32.30;11.50;;;4.40;99.90;;;;;;4964766;28;20248;-64
2023/12/15 04:31:19;;;;;;;30.57;11.20;;;4.30;99.90;;;;;;4975270;28;20205;-66
2023/12/15 04:33:45;;;;;;;29.30;10.90;;;4.30;99.90;;;;;;4976425;28;20272;-65
2023/12/15 04:36:11;;;;;;;28.67;11.33;;;4.40;99.90;;;;;;4975980;28;20329;-64
2023/12/15 04:38:37;;;;;;;31.37;10.43;;;4.30;99.90;;;;;;4975864;28;20605;-65
2023/12/15 04:41:03;;;;;;;28.60;11.00;;;4.40;99.90;;;;;;4975042;28;20297;-64
2023/12/15 04:43:28;;;;;;;28.23;10.70;;;4.40;99.90;;;;;;4976353;28;20276;-64
2023/12/15 04:45:55;;;;;;;27.53;10.47;;;4.40;99.90;;;;;;4969989;28;20380;-65
2023/12/15 04:48:21;;;;;;;30.23;10.50;;;4.40;99.90;;;;;;4977681;28;20679;-66
2023/12/15 04:50:47;;;;;;;28.23;10.23;;;4.40;99.90;;;;;;4979531;28;20695;-65
2023/12/15 04:53:12;;;;;;;28.57;11.03;;;4.40;99.90;;;;;;4982359;28;20186;-66
2023/12/15 04:55:38;;;;;;;28.17;10.40;;;4.50;99.90;;;;;;4979543;28;20575;-66
2023/12/15 04:58:03;;;;;;;32.37;11.43;;;4.50;99.90;;;;;;4977509;28;20202;-64
2023/12/15 05:00:29;;;;;;;32.33;10.97;;;4.50;99.90;;;;;;4975432;28;20213;-62
2023/12/15 05:02:54;;;;;;;29.17;10.37;;;4.50;99.90;;;;;;4975972;28;20186;-66
2023/12/15 05:05:20;;;;;;;30.67;11.30;;;4.50;99.90;;;;;;4975215;28;20213;-66
2023/12/15 05:07:46;;;;;;;32.87;13.07;;;4.50;99.90;;;;;;4975283;28;20678;-65
2023/12/15 05:10:12;;;;;;;42.20;14.17;;;4.50;99.90;;;;;;4974570;28;20653;-66
2023/12/15 05:12:37;;;;;;;33.43;12.60;;;4.50;99.90;;;;;;4975517;28;20277;-65
2023/12/15 05:15:04;;;;;;;38.17;12.83;;;4.50;99.90;;;;;;4977230;28;20205;-65
2023/12/15 05:17:33;;;;;;;36.73;12.27;;;4.50;99.90;;;;;;4976667;28;20189;-63
2023/12/15 05:19:59;;;;;;;35.83;11.20;;;4.50;99.90;;;;;;4975869;28;20272;-65
2023/12/15 05:22:24;;;;;;;30.27;11.67;;;4.40;99.90;;;;;;4968222;28;20194;-65
2023/12/15 05:24:51;;;;;;;31.47;11.40;;;4.50;99.90;;;;;;4967755;28;20193;-63
2023/12/15 05:27:17;;;;;;;27.90;11.00;;;4.40;99.90;;;;;;4974313;28;20228;-62
2023/12/15 05:29:46;;;;;;;33.10;10.80;;;4.40;99.90;;;;;;4974316;28;20567;-64
2023/12/15 05:32:12;;;;;;;28.13;10.77;;;4.30;99.90;;;;;;4973727;28;20198;-64
2023/12/15 05:34:39;;;;;;;32.10;11.47;;;4.30;99.90;;;;;;4974399;28;20186;-64
2023/12/15 05:37:05;;;;;;;30.73;11.77;;;4.30;99.90;;;;;;4974305;28;20618;-64
2023/12/15 05:39:30;;;;;;;28.70;10.87;;;4.30;99.90;;;;;;4974335;28;20561;-64
2023/12/15 05:41:56;;;;;;;31.37;11.33;;;4.20;99.90;;;;;;4972196;28;20205;-64
2023/12/15 05:44:21;;;;;;;33.60;11.50;;;4.20;99.90;;;;;;4974549;28;20648;-63
2023/12/15 05:46:49;;;;;;;33.37;12.13;;;4.20;99.90;;;;;;4974094;28;20700;-63
2023/12/15 05:49:14;;;;;;;25.87;10.37;;;4.20;99.90;;;;;;4974247;28;20546;-63
2023/12/15 05:51:46;;;;;;;29.73;11.07;;;4.20;99.90;;;;;;4973740;28;20209;-62
2023/12/15 05:54:12;;;;;;;30.83;11.40;;;4.30;99.90;;;;;;4974116;28;20249;-64
2023/12/15 05:56:38;;;;;;;36.07;12.87;;;4.30;99.90;;;;;;4974083;28;20270;-64
2023/12/15 05:59:03;;;;;;;36.47;13.07;;;4.30;99.90;;;;;;4973939;28;20244;-63
2023/12/15 06:01:29;;;;;;;32.50;12.97;;;4.30;99.90;;;;;;4973508;28;20289;-62
2023/12/15 06:03:54;;;;;;;33.00;12.17;;;4.30;99.90;;;;;;4974460;28;20187;-64
2023/12/15 06:06:20;;;;;;;36.93;12.83;;;4.30;99.90;;;;;;4974574;28;20659;-63
2023/12/15 06:08:45;;;;;;;41.50;12.43;;;4.30;99.90;;;;;;4974038;28;20586;-64
2023/12/15 06:11:11;;;;;;;32.83;11.97;;;4.30;99.90;;;;;;4973239;28;20611;-64
2023/12/15 06:13:39;;;;;;;35.80;12.50;;;4.40;99.90;;;;;;4973862;28;20186;-64
2023/12/15 06:16:05;;;;;;;47.60;14.03;;;4.40;99.90;;;;;;4973700;28;20204;-64
2023/12/15 06:18:30;;;;;;;43.40;15.67;;;4.40;99.90;;;;;;4973607;28;20574;-64
2023/12/15 06:20:56;;;;;;;47.63;17.37;;;4.40;99.90;;;;;;4972975;28;20225;-64
2023/12/15 06:23:22;;;;;;;34.73;13.60;;;4.40;99.90;;;;;;4973568;28;20477;-64
2023/12/15 06:25:47;;;;;;;32.30;11.67;;;4.40;99.90;;;;;;4973368;28;20221;-64
2023/12/15 06:28:13;;;;;;;37.23;13.30;;;4.40;99.90;;;;;;4973449;28;20214;-64
2023/12/15 06:30:38;;;;;;;34.67;12.33;;;4.40;99.90;;;;;;4973136;28;20264;-64
2023/12/15 06:33:07;;;;;;;40.60;14.50;;;4.40;99.90;;;;;;4973543;28;20197;-66
2023/12/15 06:35:33;;;;;;;36.87;13.87;;;4.50;99.90;;;;;;4972371;28;20442;-65
2023/12/15 06:37:59;;;;;;;41.70;14.13;;;4.40;99.90;;;;;;4971057;28;20328;-65
2023/12/15 06:40:28;;;;;;;39.63;14.37;;;4.40;99.90;;;;;;4980462;28;20210;-64
2023/12/15 06:42:59;;;;;;;36.70;13.33;;;4.50;99.90;;;;;;4981863;28;20189;-62
2023/12/15 06:45:26;;;;;;;39.17;14.23;;;4.50;99.90;;;;;;4982813;28;20194;-63
2023/12/15 06:47:52;;;;;;;41.10;14.57;;;4.50;99.90;;;;;;4991936;28;20257;-63
2023/12/15 06:50:18;;;;;;;38.00;13.17;;;4.50;99.90;;;;;;4980670;28;20221;-65
2023/12/15 06:52:44;;;;;;;39.63;13.63;;;4.50;99.90;;;;;;4983433;28;20197;-63
2023/12/15 06:55:10;;;;;;;35.53;13.23;;;4.50;99.90;;;;;;4982473;28;20182;-66
2023/12/15 06:57:36;;;;;;;44.30;15.43;;;4.50;99.90;;;;;;4980496;28;20194;-63
2023/12/15 07:00:02;;;;;;;41.13;14.43;;;4.60;99.90;;;;;;4973748;28;20189;-66
2023/12/15 07:02:27;;;;;;;43.40;15.10;;;4.50;99.90;;;;;;4974518;28;20201;-65
2023/12/15 07:04:53;;;;;;;42.70;13.97;;;4.50;99.90;;;;;;4974236;28;20198;-64
2023/12/15 07:07:18;;;;;;;42.23;15.53;;;4.50;99.90;;;;;;4973801;28;20244;-64
2023/12/15 07:09:44;;;;;;;47.10;15.20;;;4.60;99.90;;;;;;4974231;28;20189;-63
2023/12/15 07:12:10;;;;;;;41.90;15.20;;;4.60;99.90;;;;;;4975242;28;20288;-64
2023/12/15 07:14:37;;;;;;;41.90;15.67;;;4.60;99.90;;;;;;4980014;28;20186;-61
2023/12/15 07:17:03;;;;;;;45.03;15.27;;;4.60;99.90;;;;;;4975946;28;20177;-66
2023/12/15 07:19:30;;;;;;;41.77;15.77;;;4.60;99.90;;;;;;4981244;28;20220;-63
2023/12/15 07:21:56;;;;;;;46.30;16.00;;;4.60;99.90;;;;;;4968421;28;20200;-66
2023/12/15 07:24:22;;;;;;;45.27;16.73;;;4.60;99.90;;;;;;4974625;28;20178;-64
2023/12/15 07:26:47;;;;;;;47.00;16.17;;;4.60;99.90;;;;;;4976360;28;20185;-66
2023/12/15 07:29:13;;;;;;;39.23;16.10;;;4.60;99.90;;;;;;4979109;28;20196;-65
2023/12/15 07:31:39;;;;;;;45.23;15.53;;;4.60;99.90;;;;;;4983090;28;20209;-64
2023/12/15 07:34:05;;;;;;;46.77;15.00;;;4.60;99.90;;;;;;4982376;28;20185;-66
2023/12/15 07:36:31;;;;;;;42.63;16.67;;;4.60;99.90;;;;;;4984454;28;20182;-65
2023/12/15 07:38:57;;;;;;;41.90;16.17;;;4.60;99.90;;;;;;4993555;28;20266;-65
2023/12/15 07:41:25;;;;;;;42.50;15.40;;;4.60;99.90;;;;;;4987328;28;20213;-63
2023/12/15 07:43:54;;;;;;;42.37;15.17;;;4.60;99.90;;;;;;4987550;28;20220;-65
2023/12/15 07:46:20;;;;;;;47.87;16.23;;;4.60;99.90;;;;;;4986431;28;20343;-63
2023/12/15 07:48:46;;;;;;;51.07;17.67;;;4.70;99.90;;;;;;4985965;28;20217;-63
2023/12/15 07:51:20;;;;;;;47.57;17.80;;;4.70;99.90;;;;;;4983464;28;20281;-59
2023/12/15 07:53:49;;;;;;;46.43;16.90;;;4.70;99.90;;;;;;4971042;28;20189;-58
2023/12/15 07:56:22;;;;;;;48.07;17.47;;;4.80;99.90;;;;;;4970913;28;20609;-62
2023/12/15 07:58:51;;;;;;;52.10;17.43;;;4.80;99.90;;;;;;4970937;28;20178;-58
2023/12/15 08:01:18;;;;;;;46.17;17.63;;;4.80;99.90;;;;;;4970209;28;20693;-60
2023/12/15 08:03:44;;;;;;;46.57;18.53;;;4.80;99.90;;;;;;4970469;28;20194;-60
2023/12/15 08:06:12;;;;;;;45.17;17.60;;;4.80;99.90;;;;;;4970569;28;20592;-61
2023/12/15 08:08:38;;;;;;;45.33;16.83;;;4.80;99.90;;;;;;4970708;28;20217;-63
2023/12/15 08:11:05;;;;;;;47.80;17.73;;;4.90;99.90;;;;;;4970138;28;20225;-61
2023/12/15 08:13:30;;;;;;;44.77;18.30;;;4.90;99.90;;;;;;4970563;28;20368;-60
2023/12/15 08:15:56;;;;;;;48.07;17.20;;;5.00;99.90;;;;;;4970538;28;20265;-59
2023/12/15 08:18:21;;;;;;;43.70;16.50;;;5.00;99.90;;;;;;4970916;28;20273;-60
2023/12/15 08:20:47;;;;;;;43.73;15.73;;;5.00;99.90;;;;;;4969758;28;20227;-60
2023/12/15 08:23:14;;;;;;;50.50;17.10;;;4.90;99.90;;;;;;4970310;28;20222;-60
2023/12/15 08:25:39;;;;;;;66.50;24.60;;;5.00;99.90;;;;;;4970794;28;20714;-61
2023/12/15 08:28:05;;;;;;;46.10;17.73;;;5.00;99.90;;;;;;4969450;28;20285;-61
2023/12/15 08:30:31;;;;;;;47.33;17.17;;;4.90;99.90;;;;;;4971132;28;20266;-60
2023/12/15 08:32:58;;;;;;;46.37;17.63;;;5.00;99.90;;;;;;4970429;28;20305;-61
2023/12/15 08:35:24;;;;;;;45.87;16.20;;;5.00;99.90;;;;;;4970563;28;20639;-61
2023/12/15 08:37:49;;;;;;;42.37;16.03;;;5.00;99.90;;;;;;4967899;28;20224;-60
2023/12/15 08:40:15;;;;;;;40.63;15.97;;;5.10;99.90;;;;;;4969814;28;20238;-61
2023/12/15 08:42:41;;;;;;;43.73;17.53;;;5.10;99.90;;;;;;4970497;28;20193;-62
2023/12/15 08:45:07;;;;;;;45.33;16.70;;;5.10;99.90;;;;;;4970554;28;20197;-60
2023/12/15 08:47:33;;;;;;;54.00;18.30;;;5.10;99.90;;;;;;4970171;28;20201;-61
2023/12/15 08:49:58;;;;;;;38.70;16.23;;;5.10;99.90;;;;;;4970439;28;20178;-58
2023/12/15 08:52:24;;;;;;;40.77;15.20;;;5.10;99.90;;;;;;4969938;28;20188;-62
2023/12/15 08:54:50;;;;;;;39.80;14.90;;;5.20;99.90;;;;;;4970687;28;20285;-61
2023/12/15 08:57:15;;;;;;;37.43;14.70;;;5.20;99.90;;;;;;4970580;28;20715;-64
2023/12/15 08:59:42;;;;;;;37.57;14.53;;;5.20;99.90;;;;;;4970480;28;20190;-61
2023/12/15 09:02:08;;;;;;;34.03;13.90;;;5.20;99.90;;;;;;4969703;28;20212;-62
2023/12/15 09:04:34;;;;;;;43.30;15.33;;;5.20;99.90;;;;;;4970385;28;20193;-61
2023/12/15 09:07:00;;;;;;;40.83;15.60;;;5.30;99.90;;;;;;4970446;28;20233;-62
2023/12/15 09:09:26;;;;;;;47.80;15.07;;;5.30;99.90;;;;;;4970336;28;20619;-62
2023/12/15 09:11:51;;;;;;;38.50;14.93;;;5.30;99.90;;;;;;4969595;28;20197;-63
2023/12/15 09:14:17;;;;;;;59.67;16.70;;;5.40;99.90;;;;;;4970421;28;20318;-61
2023/12/15 09:16:43;;;;;;;44.97;16.37;;;5.40;99.90;;;;;;4972755;28;20197;-63
2023/12/15 09:19:08;;;;;;;49.63;15.97;;;5.40;99.90;;;;;;4988670;28;20241;-63
2023/12/15 09:21:34;;;;;;;41.87;15.53;;;5.40;99.90;;;;;;4973014;28;20713;-63
2023/12/15 09:24:00;;;;;;;42.27;15.33;;;5.50;99.90;;;;;;4973827;28;20213;-63
2023/12/15 09:26:26;;;;;;;42.50;14.50;;;5.50;99.90;;;;;;4973652;28;20209;-63
2023/12/15 09:28:53;;;;;;;38.77;14.97;;;5.50;99.90;;;;;;4970551;28;21812;-62
2023/12/15 09:31:19;;;;;;;39.17;14.93;;;5.50;99.90;;;;;;4968210;28;20606;-63
2023/12/15 09:33:44;;;;;;;40.33;15.10;;;5.60;99.90;;;;;;4973984;28;20186;-62
2023/12/15 09:36:10;;;;;;;42.90;15.53;;;5.60;99.90;;;;;;4974392;28;20575;-61
2023/12/15 09:38:36;;;;;;;47.13;16.33;;;5.70;99.90;;;;;;4973736;28;20732;-63
2023/12/15 09:41:01;;;;;;;59.40;17.33;;;5.70;99.90;;;;;;4973331;28;20292;-59
2023/12/15 09:43:27;;;;;;;38.47;16.03;;;5.70;99.90;;;;;;4973338;28;20572;-62
2023/12/15 09:45:57;;;;;;;40.63;14.77;;;5.80;99.90;;;;;;4973112;28;20651;-60
2023/12/15 09:48:23;;;;;;;40.77;16.10;;;5.80;99.90;;;;;;4973180;28;20253;-61
2023/12/15 09:50:55;;;;;;;46.47;16.00;;;5.80;99.90;;;;;;4972829;28;20288;-61
2023/12/15 09:53:22;;;;;;;41.20;14.53;;;5.90;99.90;;;;;;4973037;28;20188;-59
2023/12/15 09:55:50;;;;;;;48.10;16.07;;;6.00;99.90;;;;;;4973023;28;20209;-61
2023/12/15 09:58:17;;;;;;;44.10;14.27;;;6.00;99.90;;;;;;4973150;28;20186;-60
2023/12/15 10:00:42;;;;;;;40.00;14.60;;;6.00;99.90;;;;;;4972365;28;20205;-63
2023/12/15 10:03:08;;;;;;;40.37;14.37;;;6.00;99.90;;;;;;4972906;28;20725;-61
2023/12/15 10:05:34;;;;;;;60.33;21.97;;;6.00;99.90;;;;;;4972441;28;20621;-62
2023/12/15 10:08:00;;;;;;;40.40;13.60;;;6.00;99.90;;;;;;4972432;28;20205;-61
2023/12/15 10:10:26;;;;;;;36.83;13.83;;;5.90;99.90;;;;;;4971709;28;20210;-62
2023/12/15 10:12:55;;;;;;;37.47;14.70;;;6.00;99.90;;;;;;4972719;28;20198;-62
2023/12/15 10:15:21;;;;;;;48.33;17.17;;;6.00;99.90;;;;;;4972922;28;20244;-60
2023/12/15 10:17:49;;;;;;;42.43;16.43;;;5.90;99.90;;;;;;4972715;28;20651;-63
2023/12/15 10:20:16;;;;;;;41.13;15.87;;;5.80;99.90;;;;;;4972217;28;20224;-63
2023/12/15 10:22:42;;;;;;;44.13;15.80;;;5.80;99.90;;;;;;4973008;28;20196;-63
2023/12/15 10:25:23;;;;;;;52.77;15.77;;;5.80;99.90;;;;;;4972899;28;20272;-63
2023/12/15 10:27:50;;;;;;;39.83;15.40;;;5.80;99.90;;;;;;4971763;28;20261;-64
2023/12/15 10:30:17;;;;;;;46.33;15.77;;;5.80;99.90;;;;;;4972012;28;20202;-64
2023/12/15 10:32:44;;;;;;;38.63;14.93;;;5.90;99.90;;;;;;4972463;28;20531;-64
2023/12/15 10:35:10;;;;;;;35.37;14.03;;;5.90;99.90;;;;;;4972606;28;20237;-64
2023/12/15 10:37:37;;;;;;;38.90;13.67;;;5.90;99.90;;;;;;4972455;28;20181;-64
2023/12/15 10:40:04;;;;;;;35.50;13.63;;;5.90;99.90;;;;;;4972202;28;20190;-64
2023/12/15 10:42:30;;;;;;;37.77;14.00;;;6.00;99.90;;;;;;4972553;28;20182;-64
2023/12/15 10:44:58;;;;;;;32.07;12.57;;;6.10;99.90;;;;;;4972336;28;20260;-64
2023/12/15 10:47:24;;;;;;;42.73;13.53;;;6.10;99.90;;;;;;4972266;28;20442;-63
2023/12/15 10:49:52;;;;;;;39.87;15.93;;;6.20;99.90;;;;;;4971821;28;20559;-63
2023/12/15 10:52:21;;;;;;;40.77;16.17;;;6.30;99.90;;;;;;4971525;28;20724;-63
2023/12/15 10:54:50;;;;;;;45.13;14.40;;;6.30;99.90;;;;;;4972035;28;20190;-63
2023/12/15 10:57:15;;;;;;;38.80;13.80;;;6.50;99.90;;;;;;4972277;28;20266;-63
2023/12/15 10:59:41;;;;;;;35.33;13.60;;;6.60;99.90;;;;;;4971672;28;20190;-64
2023/12/15 11:02:12;;;;;;;37.90;14.27;;;6.70;99.90;;;;;;4971344;28;20213;-63
2023/12/15 11:04:39;;;;;;;36.03;13.77;;;6.80;99.90;;;;;;4971578;28;20213;-63
2023/12/15 11:07:05;;;;;;;50.03;15.40;;;6.70;99.90;;;;;;4971787;28;20185;-63
2023/12/15 11:09:34;;;;;;;31.43;13.77;;;6.70;99.90;;;;;;4971946;28;20247;-64
2023/12/15 11:12:33;;;;;;;36.77;13.97;;;6.70;99.90;;;;;;4970998;28;20668;-63
2023/12/15 11:15:02;;;;;;;33.80;14.03;;;6.70;99.90;;;;;;4949381;28;20197;-64
2023/12/15 11:17:29;;;;;;;34.13;13.93;;;6.70;99.90;;;;;;4971622;28;20202;-63
2023/12/15 11:20:20;;;;;;;33.20;14.20;;;6.70;99.90;;;;;;4971266;28;20206;-63
2023/12/15 11:23:05;;;;;;;42.47;15.17;;;6.70;99.90;;;;;;4971300;28;20677;-63
2023/12/15 11:25:34;;;;;;;34.60;13.63;;;6.80;99.90;;;;;;4971704;28;20628;-63
2023/12/15 11:28:08;;;;;;;34.00;14.07;;;6.80;99.90;;;;;;4971487;28;20205;-63
2023/12/15 11:30:46;;;;;;;39.93;14.90;;;6.90;99.90;;;;;;4970700;28;20217;-63
2023/12/15 11:33:40;;;;;;;41.37;13.80;;;7.00;99.90;;;;;;4971467;28;20192;-63
2023/12/15 11:36:12;;;;;;;34.80;13.60;;;7.00;99.90;;;;;;4971455;28;20181;-61
2023/12/15 11:38:38;;;;;;;35.37;13.00;;;7.10;99.90;;;;;;4971131;28;20340;-64
2023/12/15 11:41:04;;;;;;;31.57;13.43;;;7.20;99.90;;;;;;4970723;28;20304;-63
2023/12/15 11:43:31;;;;;;;25.23;11.63;;;7.20;99.90;;;;;;4971226;28;20190;-63
2023/12/15 11:45:57;;;;;;;32.57;13.00;;;7.20;99.90;;;;;;4971713;28;20288;-63
2023/12/15 11:48:23;;;;;;;29.87;12.47;;;7.20;99.90;;;;;;4971787;28;20210;-63
2023/12/15 11:50:49;;;;;;;34.50;11.93;;;7.20;99.90;;;;;;4971472;28;20260;-64
2023/12/15 11:53:15;;;;;;;29.53;11.53;;;7.10;99.90;;;;;;4971865;28;20595;-64
2023/12/15 11:55:42;;;;;;;36.00;13.50;;;7.20;99.90;;;;;;4972346;28;20202;-62
2023/12/15 11:58:09;;;;;;;36.33;13.07;;;7.20;99.90;;;;;;4972412;28;20665;-59
2023/12/15 12:00:34;;;;;;;33.77;13.03;;;7.00;99.90;;;;;;4970132;28;20715;-61
2023/12/15 12:03:00;;;;;;;34.43;13.40;;;7.00;99.90;;;;;;4970653;28;20182;-62
2023/12/15 12:05:29;;;;;;;32.77;13.47;;;7.00;99.90;;;;;;4966523;28;20186;-61
2023/12/15 12:08:01;;;;;;;27.00;11.77;;;7.00;99.90;;;;;;4964057;28;20218;-62
2023/12/15 12:10:31;;;;;;;34.10;12.40;;;7.10;99.90;;;;;;4962835;28;20396;-62
2023/12/15 12:12:57;;;;;;;33.40;12.57;;;7.20;99.90;;;;;;4964000;28;20196;-61
2023/12/15 12:15:23;;;;;;;41.47;14.60;;;7.30;99.90;;;;;;4966235;28;20295;-62
2023/12/15 12:17:48;;;;;;;30.67;13.47;;;7.40;99.90;;;;;;4968997;28;20280;-62
2023/12/15 12:20:14;;;;;;;28.73;12.20;;;7.50;99.90;;;;;;4969470;28;20275;-62
2023/12/15 12:22:46;;;;;;;23.00;10.43;;;7.60;99.90;;;;;;4970192;28;20197;-62
2023/12/15 12:25:13;;;;;;;29.80;10.57;;;7.70;99.90;;;;;;4970202;28;20181;-62
2023/12/15 12:27:40;;;;;;;25.03;9.70;;;7.70;99.90;;;;;;4970277;28;20248;-62
2023/12/15 12:30:16;;;;;;;25.70;9.00;;;7.80;99.90;;;;;;4969795;28;20558;-62
2023/12/15 12:32:42;;;;;;;24.83;8.93;;;7.70;99.90;;;;;;4970267;28;20604;-61
2023/12/15 12:35:08;;;;;;;16.47;7.10;;;7.70;99.90;;;;;;4970602;28;20237;-63